Time;durP1;ratioP1;P1;durP2;ratioP2;P2;SDS_P1;SDS_P2;PMS_P1;PMS_P2;Temp;Humidity;BMP_temperature;BMP_pressure;BME280_temperature;BME280_humidity;BME280_pressure;Samples;Min_cycle;Max_cycle;Signal;HPM_P1;HPM_P2
2022/09/01 00:00:00;;;;;;;1.50;0.30;;;17.20;62.30;;;;;;4735011;30;20056;-80
2022/09/01 00:02:32;;;;;;;2.08;0.30;;;17.10;62.40;;;;;;4723189;30;20426;-81
2022/09/01 00:05:01;;;;;;;1.23;0.40;;;17.10;62.60;;;;;;4728491;30;20504;-82
2022/09/01 00:07:29;;;;;;;0.90;0.20;;;17.10;62.60;;;;;;4705476;30;20115;-81
2022/09/01 00:09:58;;;;;;;0.70;0.20;;;17.00;62.60;;;;;;4734971;30;20140;-81
2022/09/01 00:12:26;;;;;;;0.13;0.10;;;17.00;62.70;;;;;;4719289;30;20045;-81
2022/09/01 00:14:53;;;;;;;0.82;0.30;;;17.00;62.80;;;;;;4719183;30;20457;-81
2022/09/01 00:17:20;;;;;;;0.70;0.30;;;17.00;62.90;;;;;;4718993;30;20134;-81
2022/09/01 00:19:48;;;;;;;0.80;0.20;;;17.00;63.00;;;;;;4718860;30;20515;-81
2022/09/01 00:22:15;;;;;;;0.43;0.20;;;17.00;63.60;;;;;;4719028;30;20044;-82
2022/09/01 00:24:42;;;;;;;0.73;0.25;;;17.00;63.10;;;;;;4734646;30;20068;-81
2022/09/01 00:27:09;;;;;;;0.57;0.30;;;16.90;63.10;;;;;;4719073;30;20151;-82
2022/09/01 00:29:36;;;;;;;0.70;0.20;;;16.90;63.20;;;;;;4731618;30;20083;-82
2022/09/01 00:32:09;;;;;;;1.00;0.10;;;16.90;63.10;;;;;;4705274;30;20052;-81
2022/09/01 00:34:36;;;;;;;0.75;0.20;;;16.90;63.20;;;;;;4704126;30;20475;-82
2022/09/01 00:37:03;;;;;;;0.63;0.10;;;16.90;63.30;;;;;;4734337;30;20453;-82
2022/09/01 00:39:30;;;;;;;1.23;0.30;;;16.90;63.30;;;;;;4704783;30;20057;-83
2022/09/01 00:41:58;;;;;;;0.25;0.20;;;16.90;63.30;;;;;;4718917;30;20800;-82
2022/09/01 00:44:26;;;;;;;0.70;0.30;;;16.90;63.30;;;;;;4718347;30;20578;-82
2022/09/01 00:46:57;;;;;;;1.02;0.30;;;16.90;63.30;;;;;;4720096;30;20429;-82
2022/09/01 00:49:30;;;;;;;0.55;0.20;;;16.80;63.40;;;;;;4710991;30;20590;-81
2022/09/01 00:52:11;;;;;;;1.50;0.20;;;16.90;63.40;;;;;;4721756;30;20044;-81
2022/09/01 00:54:46;;;;;;;0.70;0.30;;;16.80;63.40;;;;;;4724737;30;20111;-81
2022/09/01 00:57:14;;;;;;;0.80;0.25;;;16.80;63.60;;;;;;4740590;30;20149;-81
2022/09/01 00:59:56;;;;;;;1.63;0.30;;;16.80;64.30;;;;;;4708036;30;20052;-82
2022/09/01 01:02:24;;;;;;;0.28;0.25;;;16.70;63.70;;;;;;4703856;30;20196;-82
2022/09/01 01:04:51;;;;;;;0.80;0.28;;;16.70;63.70;;;;;;4718355;30;20127;-82
2022/09/01 01:07:21;;;;;;;1.00;0.20;;;16.70;63.80;;;;;;4718091;30;20125;-80
2022/09/01 01:09:50;;;;;;;1.35;0.30;;;16.70;63.90;;;;;;4708857;30;20162;-80
2022/09/01 01:12:18;;;;;;;1.30;0.30;;;16.70;63.90;;;;;;4726925;30;20045;-80
2022/09/01 01:14:50;;;;;;;0.57;0.20;;;16.60;64.50;;;;;;4715327;30;20049;-80
2022/09/01 01:17:20;;;;;;;0.45;0.20;;;16.60;63.90;;;;;;4700747;30;20139;-80
2022/09/01 01:23:02;;;;;;;1.23;0.25;;;16.70;63.70;;;;;;4735442;30;20431;-80
2022/09/01 01:25:41;;;;;;;0.32;0.10;;;16.70;63.60;;;;;;4733802;30;20414;-80
2022/09/01 01:28:17;;;;;;;0.52;0.20;;;16.70;63.50;;;;;;4726197;30;20057;-79
2022/09/01 01:30:58;;;;;;;0.40;0.22;;;16.70;63.40;;;;;;4728560;30;20063;-80
2022/09/01 01:33:29;;;;;;;0.52;0.10;;;16.70;63.30;;;;;;4717596;30;20052;-80
2022/09/01 01:35:58;;;;;;;0.43;0.17;;;16.80;63.20;;;;;;4706046;30;20056;-80
2022/09/01 01:38:29;;;;;;;0.30;0.20;;;16.80;63.10;;;;;;4725813;30;20060;-79
2022/09/01 01:40:57;;;;;;;0.63;0.20;;;16.80;62.90;;;;;;4715521;30;20134;-79
2022/09/01 01:43:26;;;;;;;0.73;0.20;;;16.90;62.80;;;;;;4703525;30;20472;-80
2022/09/01 01:45:57;;;;;;;0.95;0.22;;;17.00;62.60;;;;;;4717344;30;20564;-80
2022/09/01 01:48:33;;;;;;;1.60;0.30;;;17.00;62.40;;;;;;4739877;30;20048;-80
2022/09/01 01:51:01;;;;;;;1.10;0.20;;;17.10;62.30;;;;;;4704005;30;20049;-80
2022/09/01 01:53:29;;;;;;;0.80;0.20;;;17.10;62.00;;;;;;4701153;30;20049;-79
2022/09/01 01:55:57;;;;;;;0.32;0.10;;;17.20;61.80;;;;;;4703609;30;20053;-79
2022/09/01 01:58:29;;;;;;;0.60;0.20;;;17.30;61.70;;;;;;4717503;30;20103;-79
2022/09/01 02:00:57;;;;;;;0.95;0.20;;;17.30;61.50;;;;;;4694820;30;20059;-79
2022/09/01 02:03:31;;;;;;;0.40;0.10;;;17.40;61.40;;;;;;4726403;30;20052;-80
2022/09/01 02:06:03;;;;;;;0.77;0.20;;;17.30;61.20;;;;;;4703268;30;20067;-79
2022/09/01 02:08:34;;;;;;;0.50;0.20;;;17.40;61.20;;;;;;4733393;30;20538;-79
2022/09/01 02:11:04;;;;;;;0.70;0.10;;;17.40;61.10;;;;;;4721610;30;20058;-79
2022/09/01 02:13:32;;;;;;;0.65;0.13;;;17.40;61.00;;;;;;4733134;30;20545;-79
2022/09/01 02:16:11;;;;;;;0.52;0.17;;;17.40;60.90;;;;;;4700242;30;20430;-79
2022/09/01 02:18:46;;;;;;;0.35;0.15;;;17.40;60.90;;;;;;4713694;30;20053;-80
2022/09/01 02:21:19;;;;;;;0.63;0.15;;;17.40;61.00;;;;;;4720667;30;20045;-80
2022/09/01 02:23:59;;;;;;;0.75;0.20;;;17.30;60.90;;;;;;4711811;30;20053;-80
2022/09/01 02:26:30;;;;;;;;;;;17.30;60.80;;;;;;4721127;30;20418;-79
2022/09/01 02:29:03;;;;;;;0.65;0.20;;;17.20;60.90;;;;;;4720491;30;19934;-79
2022/09/01 02:31:34;;;;;;;0.35;0.10;;;17.20;60.90;;;;;;4720332;30;20055;-79
2022/09/01 02:34:03;;;;;;;0.35;0.10;;;17.20;60.90;;;;;;4720517;30;20494;-80
2022/09/01 02:36:33;;;;;;;1.35;0.10;;;17.20;60.90;;;;;;4720731;30;20478;-79
2022/09/01 02:39:01;;;;;;;0.23;0.10;;;17.10;60.90;;;;;;4707668;30;20060;-79
2022/09/01 02:41:33;;;;;;;0.52;0.20;;;17.20;60.90;;;;;;4720439;30;20493;-80
2022/09/01 02:44:01;;;;;;;0.80;0.13;;;17.10;61.00;;;;;;4697249;30;20052;-79
2022/09/01 02:46:29;;;;;;;0.30;0.10;;;17.10;61.00;;;;;;4722254;30;20112;-80
2022/09/01 02:48:59;;;;;;;0.68;0.20;;;17.10;61.00;;;;;;4718532;30;20055;-79
2022/09/01 02:51:26;;;;;;;2.22;0.20;;;17.10;61.10;;;;;;4721570;30;20129;-79
2022/09/01 02:53:53;;;;;;;0.47;0.13;;;17.00;61.10;;;;;;4720165;30;20037;-79
2022/09/01 02:56:23;;;;;;;0.30;0.10;;;17.00;61.10;;;;;;4712075;30;20127;-80
2022/09/01 02:58:52;;;;;;;0.35;0.20;;;17.00;61.20;;;;;;4733236;30;20634;-79
2022/09/01 03:01:28;;;;;;;0.73;0.20;;;17.00;61.20;;;;;;4719727;30;20402;-80
2022/09/01 03:04:04;;;;;;;0.63;0.10;;;16.90;61.20;;;;;;4720580;30;20165;-80
2022/09/01 03:06:32;;;;;;;1.65;0.30;;;16.90;61.20;;;;;;4744507;30;20571;-80
2022/09/01 03:09:02;;;;;;;0.43;0.20;;;16.90;61.20;;;;;;4706653;30;20071;-80
2022/09/01 03:11:31;;;;;;;0.43;0.17;;;16.90;61.20;;;;;;4730616;30;20067;-80
2022/09/01 03:13:59;;;;;;;0.90;0.10;;;16.90;61.20;;;;;;4720116;30;20049;-80
2022/09/01 03:16:29;;;;;;;0.47;0.13;;;16.90;61.30;;;;;;4729269;30;20061;-80
2022/09/01 03:18:56;;;;;;;0.25;0.10;;;16.90;61.20;;;;;;4708103;30;20052;-80
2022/09/01 03:21:24;;;;;;;0.68;0.10;;;16.80;61.20;;;;;;4720150;30;20052;-80
2022/09/01 03:23:52;;;;;;;0.63;0.13;;;16.80;61.20;;;;;;4739502;30;20131;-80
2022/09/01 03:26:21;;;;;;;0.73;0.20;;;16.80;61.20;;;;;;4730172;30;20083;-79
2022/09/01 03:28:51;;;;;;;0.80;0.20;;;16.80;61.20;;;;;;4705146;30;20155;-79
2022/09/01 03:31:19;;;;;;;1.20;0.20;;;16.80;61.30;;;;;;4719454;30;20110;-79
2022/09/01 03:33:49;;;;;;;0.85;0.17;;;16.70;61.30;;;;;;4718311;30;20045;-80
2022/09/01 03:36:28;;;;;;;1.13;0.20;;;16.70;61.40;;;;;;4708373;30;20055;-79
2022/09/01 03:38:56;;;;;;;1.73;0.20;;;16.70;61.40;;;;;;4702729;30;20135;-80
2022/09/01 03:41:30;;;;;;;0.47;0.20;;;16.60;61.50;;;;;;4715750;30;20045;-80
2022/09/01 03:43:58;;;;;;;1.08;0.15;;;16.60;61.50;;;;;;4720650;30;20056;-80
2022/09/01 03:46:30;;;;;;;1.05;0.22;;;16.60;61.60;;;;;;4726218;30;20114;-80
2022/09/01 03:49:06;;;;;;;1.00;0.20;;;16.50;61.60;;;;;;4716552;30;20048;-79
2022/09/01 03:51:37;;;;;;;0.52;0.13;;;16.50;61.70;;;;;;4708651;30;20053;-79
2022/09/01 03:54:07;;;;;;;0.43;0.20;;;16.50;61.70;;;;;;4716360;30;20447;-80
2022/09/01 03:56:34;;;;;;;0.47;0.20;;;16.50;61.70;;;;;;4716809;30;20065;-80
2022/09/01 03:59:02;;;;;;;0.45;0.20;;;16.40;61.70;;;;;;4686070;30;20073;-79
2022/09/01 04:01:40;;;;;;;0.93;0.20;;;16.40;61.80;;;;;;4705356;30;20052;-80
2022/09/01 04:04:08;;;;;;;0.57;0.20;;;16.40;61.90;;;;;;4702888;30;20154;-80
2022/09/01 04:06:36;;;;;;;3.30;0.22;;;16.40;62.10;;;;;;4701967;30;20095;-80
2022/09/01 04:09:03;;;;;;;1.00;0.20;;;16.30;61.90;;;;;;4715912;30;20741;-80
2022/09/01 04:11:32;;;;;;;0.82;0.20;;;16.30;61.90;;;;;;4702093;30;20046;-80
2022/09/01 04:14:00;;;;;;;0.82;0.20;;;16.30;62.00;;;;;;4701458;30;20140;-80
2022/09/01 04:19:25;;;;;;;0.40;0.20;;;16.30;62.00;;;;;;4702273;30;20053;-80
2022/09/01 04:21:58;;;;;;;1.73;0.10;;;16.20;61.90;;;;;;4716034;30;20049;-80
2022/09/01 04:24:31;;;;;;;1.05;0.20;;;16.20;61.90;;;;;;4717156;30;20057;-80
2022/09/01 04:27:01;;;;;;;0.55;0.20;;;16.20;62.00;;;;;;4716098;30;20129;-80
2022/09/01 04:29:30;;;;;;;1.02;0.20;;;16.20;62.00;;;;;;4700577;30;20048;-80
2022/09/01 04:32:04;;;;;;;0.50;0.20;;;16.20;62.00;;;;;;4737285;30;20052;-80
2022/09/01 04:34:38;;;;;;;1.27;0.28;;;16.20;62.00;;;;;;4717189;30;20057;-80
2022/09/01 04:37:13;;;;;;;1.45;0.20;;;16.20;61.90;;;;;;4721856;30;20065;-80
2022/09/01 04:39:47;;;;;;;0.10;0.10;;;16.30;62.00;;;;;;4716711;30;20056;-80
2022/09/01 04:42:22;;;;;;;0.32;0.20;;;16.20;61.90;;;;;;4702625;30;20053;-80
2022/09/01 04:44:52;;;;;;;1.70;0.55;;;16.20;61.90;;;;;;4702858;30;20057;-80
2022/09/01 04:47:28;;;;;;;0.80;0.20;;;16.20;61.90;;;;;;4711589;30;20055;-80
2022/09/01 04:50:12;;;;;;;0.85;0.13;;;16.10;61.90;;;;;;4732023;30;20152;-81
2022/09/01 04:52:44;;;;;;;1.10;0.20;;;16.10;62.00;;;;;;4734023;30;20055;-80
2022/09/01 04:55:28;;;;;;;0.93;0.45;;;16.10;62.00;;;;;;4725213;30;20135;-80
2022/09/01 04:57:59;;;;;;;0.77;0.20;;;16.00;62.70;;;;;;4718411;30;20431;-81
2022/09/01 05:00:30;;;;;;;0.55;0.20;;;16.00;62.20;;;;;;4717887;30;20063;-80
2022/09/01 05:03:04;;;;;;;1.00;0.20;;;16.00;62.20;;;;;;4704501;30;20060;-81
2022/09/01 05:05:53;;;;;;;2.20;0.22;;;15.90;62.30;;;;;;4716851;30;20052;-80
2022/09/01 05:08:22;;;;;;;0.55;0.20;;;15.90;62.40;;;;;;4703771;30;20052;-80
2022/09/01 05:10:55;;;;;;;1.98;0.30;;;15.80;62.40;;;;;;4718067;30;20143;-80
2022/09/01 05:13:37;;;;;;;0.73;0.25;;;15.80;62.50;;;;;;4717912;30;20044;-80
2022/09/01 05:16:11;;;;;;;1.10;0.30;;;15.70;62.50;;;;;;4715046;30;20607;-80
2022/09/01 05:18:47;;;;;;;0.45;0.25;;;15.80;62.60;;;;;;4713338;30;20056;-80
2022/09/01 05:21:17;;;;;;;1.85;0.47;;;15.70;62.60;;;;;;4708136;30;20053;-80
2022/09/01 05:23:46;;;;;;;1.17;0.28;;;15.70;62.60;;;;;;4726094;30;20053;-80
2022/09/01 05:26:22;;;;;;;0.70;0.20;;;15.70;62.60;;;;;;4717891;30;20060;-80
2022/09/01 05:28:58;;;;;;;1.60;0.13;;;15.70;62.70;;;;;;4719393;30;20151;-81
2022/09/01 05:31:33;;;;;;;0.75;0.17;;;15.70;62.70;;;;;;4720349;30;20054;-80
2022/09/01 05:34:01;;;;;;;0.55;0.20;;;15.70;62.70;;;;;;4729207;30;20505;-80
2022/09/01 05:36:32;;;;;;;1.00;0.20;;;15.70;62.70;;;;;;4706776;30;20064;-80
2022/09/01 05:39:03;;;;;;;0.57;0.20;;;15.70;62.70;;;;;;4727413;30;20091;-83
2022/09/01 05:41:34;;;;;;;0.60;0.20;;;15.70;62.70;;;;;;4716068;30;20045;-83
2022/09/01 05:44:06;;;;;;;1.17;0.30;;;15.60;62.60;;;;;;4704493;30;20110;-80
2022/09/01 05:46:38;;;;;;;0.30;0.20;;;15.60;62.70;;;;;;4717284;30;20049;-80
2022/09/01 05:49:13;;;;;;;1.43;0.27;;;15.60;62.70;;;;;;4714700;30;20081;-81
2022/09/01 05:51:42;;;;;;;1.20;0.35;;;15.60;62.70;;;;;;4699903;30;20052;-80
2022/09/01 05:54:21;;;;;;;0.40;0.15;;;15.60;62.70;;;;;;4723004;30;20068;-77
2022/09/01 05:56:49;;;;;;;0.47;0.20;;;15.60;62.70;;;;;;4704971;30;20128;-77
2022/09/01 05:59:22;;;;;;;0.25;0.20;;;15.60;62.70;;;;;;4718201;30;20052;-77
2022/09/01 06:01:56;;;;;;;0.90;0.30;;;15.60;62.70;;;;;;4704823;30;20056;-77
2022/09/01 06:04:25;;;;;;;0.65;0.20;;;15.60;62.70;;;;;;4703828;30;20119;-77
2022/09/01 06:06:56;;;;;;;1.15;0.28;;;15.60;62.70;;;;;;4689919;30;20049;-77
2022/09/01 06:09:38;;;;;;;0.98;0.20;;;15.60;62.70;;;;;;4692328;30;20112;-77
2022/09/01 06:12:06;;;;;;;1.08;0.20;;;15.60;63.30;;;;;;4727466;30;20048;-77
2022/09/01 06:14:33;;;;;;;0.80;0.20;;;15.70;62.70;;;;;;4721657;30;20075;-77
2022/09/01 06:17:01;;;;;;;0.77;0.20;;;15.70;63.20;;;;;;4713026;30;20442;-76
2022/09/01 06:19:32;;;;;;;2.38;0.10;;;15.80;62.50;;;;;;4715070;30;20065;-78
2022/09/01 06:22:04;;;;;;;2.38;0.28;;;15.80;62.40;;;;;;4705268;30;20068;-78
2022/09/01 06:24:32;;;;;;;3.45;0.32;;;15.80;62.40;;;;;;4730929;30;20049;-79
2022/09/01 06:27:00;;;;;;;1.70;0.30;;;15.90;62.30;;;;;;4693675;30;20572;-78
2022/09/01 06:29:30;;;;;;;0.52;0.20;;;16.00;62.10;;;;;;4702590;30;20049;-79
2022/09/01 06:32:01;;;;;;;2.28;0.20;;;16.20;61.90;;;;;;4734614;30;20041;-79
2022/09/01 06:34:28;;;;;;;3.00;0.22;;;16.30;61.60;;;;;;4718398;30;20127;-79
2022/09/01 06:36:55;;;;;;;0.25;0.10;;;16.40;61.30;;;;;;4702945;30;20052;-79
2022/09/01 06:39:25;;;;;;;1.00;0.28;;;16.40;61.20;;;;;;4710311;30;20474;-79
2022/09/01 06:41:54;;;;;;;0.40;0.20;;;16.50;61.20;;;;;;4706407;30;20511;-79
2022/09/01 06:44:30;;;;;;;1.05;0.20;;;16.60;61.20;;;;;;4706482;30;20056;-78
2022/09/01 06:47:03;;;;;;;0.50;0.20;;;16.70;61.20;;;;;;4720303;30;20048;-79
2022/09/01 06:49:35;;;;;;;0.82;0.20;;;16.80;61.00;;;;;;4720113;30;20088;-79
2022/09/01 06:52:08;;;;;;;0.80;0.22;;;16.90;60.80;;;;;;4707242;30;20481;-79
2022/09/01 06:54:38;;;;;;;1.98;0.30;;;17.00;60.50;;;;;;4727852;30;20052;-77
2022/09/01 06:57:05;;;;;;;1.13;0.30;;;17.20;60.20;;;;;;4709079;30;20052;-77
2022/09/01 06:59:53;;;;;;;2.08;0.43;;;17.40;60.00;;;;;;4719896;30;20147;-77
2022/09/01 07:02:21;;;;;;;1.27;0.28;;;17.50;59.80;;;;;;4705604;30;20052;-77
2022/09/01 07:05:17;;;;;;;0.73;0.20;;;17.60;59.60;;;;;;4731647;30;20490;-77
2022/09/01 07:08:08;;;;;;;1.73;0.20;;;17.80;59.50;;;;;;4716768;30;20055;-77
2022/09/01 07:10:49;;;;;;;0.90;0.20;;;17.90;59.40;;;;;;4719963;30;20044;-76
2022/09/01 07:13:37;;;;;;;1.75;0.20;;;18.10;59.20;;;;;;4714025;30;20051;-76
2022/09/01 07:16:25;;;;;;;1.35;0.20;;;18.20;59.00;;;;;;4712099;30;20060;-76
2022/09/01 07:19:01;;;;;;;1.10;0.10;;;18.30;58.80;;;;;;4681538;30;20056;-77
2022/09/01 07:21:31;;;;;;;1.52;0.22;;;18.40;58.70;;;;;;4720173;30;20052;-77
2022/09/01 07:24:19;;;;;;;0.40;0.10;;;18.50;58.60;;;;;;4710240;30;20128;-76
2022/09/01 07:27:09;;;;;;;0.88;0.20;;;18.60;58.50;;;;;;4713186;30;20131;-77
2022/09/01 07:29:38;;;;;;;0.93;0.30;;;18.60;58.40;;;;;;4705146;30;20457;-78
2022/09/01 07:32:08;;;;;;;0.35;0.10;;;18.60;58.40;;;;;;4723999;30;20084;-77
2022/09/01 07:34:56;;;;;;;0.82;0.22;;;18.60;58.50;;;;;;4706108;30;20037;-81
2022/09/01 07:37:26;;;;;;;0.52;0.20;;;18.50;58.60;;;;;;4716819;30;20056;-81
2022/09/01 07:40:20;;;;;;;0.30;0.10;;;18.40;58.70;;;;;;4715853;30;20055;-80
2022/09/01 07:43:27;;;;;;;0.47;0.20;;;18.50;58.70;;;;;;4742268;30;20470;-80
2022/09/01 07:46:19;;;;;;;0.20;0.10;;;18.60;58.70;;;;;;4722281;30;20068;-80
2022/09/01 07:49:11;;;;;;;0.40;0.10;;;18.70;58.50;;;;;;4709632;30;20060;-80
2022/09/01 07:52:00;;;;;;;0.75;0.20;;;18.70;58.20;;;;;;4694213;30;20043;-80
2022/09/01 07:54:29;;;;;;;1.85;0.20;;;18.80;58.00;;;;;;4711287;30;20574;-78
2022/09/01 07:56:56;;;;;;;0.57;0.20;;;18.90;57.80;;;;;;4719031;30;20048;-77
2022/09/01 07:59:27;;;;;;;1.17;0.20;;;19.10;57.70;;;;;;4704827;30;20080;-77
2022/09/01 08:02:04;;;;;;;0.35;0.20;;;19.20;57.40;;;;;;4724948;30;20060;-79
2022/09/01 08:04:32;;;;;;;1.00;0.30;;;19.30;57.30;;;;;;4709426;30;20383;-80
2022/09/01 08:07:04;;;;;;;1.10;0.25;;;19.40;57.10;;;;;;4720885;30;20051;-80
2022/09/01 08:09:36;;;;;;;0.77;0.20;;;19.50;57.00;;;;;;4708096;30;20056;-80
2022/09/01 08:12:20;;;;;;;0.65;0.17;;;19.60;56.90;;;;;;4715548;30;20052;-82
2022/09/01 08:14:55;;;;;;;0.80;0.20;;;19.70;56.80;;;;;;4714401;30;20052;-80
2022/09/01 08:17:45;;;;;;;0.77;0.10;;;19.80;56.70;;;;;;4706398;30;20048;-80
2022/09/01 08:20:22;;;;;;;0.47;0.20;;;19.90;56.50;;;;;;4727268;30;20454;-80
2022/09/01 08:22:50;;;;;;;1.20;0.10;;;20.00;56.40;;;;;;4704517;30;20120;-80
2022/09/01 08:25:22;;;;;;;1.67;0.20;;;20.10;56.30;;;;;;4703513;30;20049;-80
2022/09/01 08:27:53;;;;;;;0.65;0.20;;;20.10;56.00;;;;;;4718538;30;20040;-81
2022/09/01 08:30:28;;;;;;;0.10;0.10;;;20.20;56.00;;;;;;4701192;30;20147;-81
2022/09/01 08:32:56;;;;;;;0.32;0.10;;;20.30;55.80;;;;;;4716374;30;20045;-80
2022/09/01 08:35:24;;;;;;;0.63;0.20;;;20.50;55.70;;;;;;4693853;30;20140;-83
2022/09/01 08:37:52;;;;;;;0.22;0.10;;;20.50;55.50;;;;;;4730375;30;20064;-83
2022/09/01 08:40:22;;;;;;;0.60;0.20;;;20.60;55.20;;;;;;4698229;30;20483;-83
2022/09/01 08:43:08;;;;;;;0.60;0.20;;;20.70;55.20;;;;;;4697168;30;20145;-79
2022/09/01 08:45:56;;;;;;;0.38;0.20;;;20.80;55.00;;;;;;4707574;30;20057;-80
2022/09/01 08:48:36;;;;;;;0.63;0.15;;;20.80;54.90;;;;;;4700653;30;20091;-81
2022/09/01 08:51:56;;;;;;;0.57;0.20;;;20.90;54.80;;;;;;4719616;30;20045;-82
2022/09/01 08:54:31;;;;;;;1.50;0.20;;;21.00;54.70;;;;;;4709510;30;20095;-82
2022/09/01 08:57:15;;;;;;;0.82;0.13;;;21.00;54.30;;;;;;4713145;30;20046;-82
2022/09/01 09:00:12;;;;;;;1.40;0.20;;;21.10;54.10;;;;;;4695287;30;20136;-82
2022/09/01 09:03:21;;;;;;;0.85;0.20;;;21.10;54.20;;;;;;4721491;30;20070;-81
2022/09/01 09:06:37;;;;;;;0.30;0.10;;;21.30;53.80;;;;;;4710521;30;20061;-81
2022/09/01 09:09:06;;;;;;;0.20;0.00;;;21.40;53.60;;;;;;4709563;30;20060;-82
2022/09/01 09:12:00;;;;;;;0.88;0.20;;;21.50;53.50;;;;;;4715414;30;20044;-81
2022/09/01 09:14:47;;;;;;;1.63;0.15;;;21.60;53.10;;;;;;4703192;30;20563;-83
2022/09/01 09:17:18;;;;;;;0.82;0.17;;;21.60;52.70;;;;;;4717401;30;20048;-82
2022/09/01 09:19:45;;;;;;;0.95;0.25;;;21.70;52.40;;;;;;4723873;30;20045;-82
2022/09/01 09:22:17;;;;;;;0.77;0.10;;;21.80;52.10;;;;;;4700996;30;20049;-81
2022/09/01 09:25:17;;;;;;;1.80;0.20;;;21.80;51.90;;;;;;4715954;30;20041;-83
2022/09/01 09:27:47;;;;;;;1.77;0.25;;;22.00;51.70;;;;;;4705564;30;20064;-82
2022/09/01 09:30:25;;;;;;;0.70;0.10;;;22.00;51.60;;;;;;4702388;30;20045;-83
2022/09/01 09:32:59;;;;;;;0.85;0.20;;;22.10;51.30;;;;;;4705516;30;20148;-84
2022/09/01 09:35:46;;;;;;;0.50;0.10;;;22.10;50.90;;;;;;4708820;30;20053;-86
2022/09/01 09:38:31;;;;;;;0.43;0.00;;;22.20;50.90;;;;;;4715083;30;20057;-87
2022/09/01 09:41:15;;;;;;;0.80;0.22;;;22.20;50.70;;;;;;4716048;30;20061;-86
2022/09/01 09:43:59;;;;;;;0.32;0.20;;;22.30;50.30;;;;;;4715447;30;20389;-87
2022/09/01 09:46:31;;;;;;;0.60;0.10;;;22.40;49.80;;;;;;4715346;30;20049;-85
2022/09/01 09:49:12;;;;;;;0.68;0.10;;;22.50;49.80;;;;;;4706871;30;20048;-85
2022/09/01 09:51:43;;;;;;;0.40;0.10;;;22.60;49.30;;;;;;4701004;30;20107;-86
2022/09/01 09:54:32;;;;;;;0.35;0.10;;;22.60;49.10;;;;;;4714923;30;20112;-84
2022/09/01 09:57:08;;;;;;;0.65;0.35;;;22.80;48.80;;;;;;4719395;30;20073;-85
2022/09/01 09:59:40;;;;;;;0.30;0.15;;;22.90;48.60;;;;;;4715407;30;20148;-83
2022/09/01 10:02:38;;;;;;;0.38;0.10;;;23.00;48.20;;;;;;4713482;30;20139;-80
2022/09/01 10:05:35;;;;;;;0.50;0.10;;;23.10;47.80;;;;;;4714615;30;20499;-83
2022/09/01 10:08:06;;;;;;;0.20;0.10;;;23.30;47.40;;;;;;4716251;30;20059;-85
2022/09/01 10:10:46;;;;;;;0.25;0.10;;;23.30;47.20;;;;;;4714577;30;20105;-86
2022/09/01 10:13:30;;;;;;;0.50;0.13;;;23.40;46.90;;;;;;4720295;30;20057;-82
2022/09/01 10:16:29;;;;;;;0.10;0.00;;;23.50;46.60;;;;;;4715239;30;20476;-82
2022/09/01 10:19:00;;;;;;;1.10;0.10;;;23.70;46.10;;;;;;4714838;30;20042;-83
2022/09/01 10:21:37;;;;;;;0.20;0.10;;;23.90;45.60;;;;;;4723948;30;20106;-85
2022/09/01 10:24:30;;;;;;;0.20;0.00;;;24.00;45.10;;;;;;4714634;30;20508;-88
2022/09/01 10:27:20;;;;;;;0.40;0.10;;;23.90;44.90;;;;;;4720195;30;20619;-84
2022/09/01 10:30:08;;;;;;;0.68;0.10;;;24.00;44.40;;;;;;4726213;30;20076;-81
2022/09/01 10:32:51;;;;;;;0.17;0.05;;;24.30;44.20;;;;;;4722632;30;20060;-80
2022/09/01 10:35:31;;;;;;;0.38;0.10;;;24.70;43.70;;;;;;4720195;30;20060;-80
2022/09/01 10:38:05;;;;;;;0.75;0.10;;;25.00;43.10;;;;;;4730482;30;20126;-80
2022/09/01 10:40:49;;;;;;;1.35;0.10;;;25.30;42.90;;;;;;4724781;30;20509;-83
2022/09/01 10:43:28;;;;;;;0.57;0.10;;;25.30;42.50;;;;;;4722640;30;20056;-82
2022/09/01 10:46:20;;;;;;;0.35;0.10;;;25.20;42.50;;;;;;4720402;30;20507;-84
2022/09/01 10:48:56;;;;;;;0.30;0.13;;;24.70;43.00;;;;;;4721585;30;20063;-83
2022/09/01 10:51:47;;;;;;;0.47;0.20;;;24.30;43.50;;;;;;4738221;30;20048;-85
2022/09/01 10:54:39;;;;;;;0.10;0.10;;;24.10;43.90;;;;;;4706996;30;20466;-82
2022/09/01 10:57:54;;;;;;;0.50;0.10;;;24.10;44.00;;;;;;4723916;30;20040;-85
2022/09/01 11:00:38;;;;;;;0.08;0.00;;;24.20;43.90;;;;;;4720183;30;20419;-84
2022/09/01 11:03:12;;;;;;;0.43;0.17;;;24.10;44.10;;;;;;4721258;30;20087;-91
2022/09/01 11:06:02;;;;;;;0.45;0.10;;;24.20;44.00;;;;;;4722084;30;20068;-82
2022/09/01 11:08:56;;;;;;;0.20;0.08;;;24.20;43.80;;;;;;4719724;30;20056;-83
2022/09/01 11:11:35;;;;;;;0.10;0.03;;;24.10;44.00;;;;;;4731966;30;20138;-81
2022/09/01 11:14:21;;;;;;;0.17;0.10;;;24.00;44.10;;;;;;4727024;30;20063;-81
2022/09/01 11:17:26;;;;;;;0.63;0.10;;;23.90;44.30;;;;;;4736313;30;20052;-83
2022/09/01 11:19:57;;;;;;;0.40;0.10;;;23.90;44.30;;;;;;4679472;30;20052;-82
2022/09/01 11:22:34;;;;;;;0.45;0.10;;;23.90;44.10;;;;;;4711645;30;20060;-82
2022/09/01 11:25:36;;;;;;;2.30;0.10;;;23.90;44.00;;;;;;4712397;30;20064;-84
2022/09/01 11:28:07;;;;;;;0.32;0.10;;;24.50;43.50;;;;;;4719260;30;20102;-84
2022/09/01 11:30:53;;;;;;;0.55;0.10;;;25.40;42.40;;;;;;4729187;30;20135;-87
2022/09/01 11:33:52;;;;;;;0.82;0.20;;;26.20;40.90;;;;;;4736568;30;20053;-80
2022/09/01 11:36:29;;;;;;;0.95;0.20;;;27.00;40.30;;;;;;4725968;30;20045;-82
2022/09/01 11:39:18;;;;;;;0.52;0.10;;;27.40;39.80;;;;;;4740586;30;20518;-81
2022/09/01 11:41:49;;;;;;;0.57;0.10;;;27.80;39.50;;;;;;4719711;30;20053;-81
2022/09/01 11:44:34;;;;;;;0.20;0.10;;;28.10;39.20;;;;;;4724079;30;20133;-82
2022/09/01 11:47:05;;;;;;;0.60;0.10;;;28.10;39.00;;;;;;4704352;30;20064;-85
2022/09/01 11:49:51;;;;;;;0.68;0.20;;;28.20;39.00;;;;;;4719917;30;20211;-82
2022/09/01 11:52:31;;;;;;;0.80;0.20;;;28.30;38.90;;;;;;4726914;30;20056;-86
2022/09/01 11:55:47;;;;;;;0.20;0.10;;;28.40;38.90;;;;;;4730498;30;20052;-81
2022/09/01 11:58:38;;;;;;;0.40;0.17;;;28.40;38.80;;;;;;4732921;30;20509;-80
2022/09/01 12:01:19;;;;;;;1.02;0.10;;;28.50;38.50;;;;;;4728627;30;20056;-79
2022/09/01 12:03:48;;;;;;;0.17;0.10;;;28.70;38.50;;;;;;4729146;30;20098;-80
2022/09/01 12:06:23;;;;;;;1.60;0.10;;;28.70;38.30;;;;;;4729423;30;20051;-78
2022/09/01 12:09:04;;;;;;;0.68;0.10;;;28.90;38.20;;;;;;4724332;30;20044;-78
2022/09/01 12:11:34;;;;;;;1.00;0.20;;;28.60;38.20;;;;;;4719068;30;20049;-80
2022/09/01 12:14:03;;;;;;;0.30;0.10;;;27.60;38.90;;;;;;4719033;30;20079;-80
2022/09/01 12:16:40;;;;;;;0.55;0.10;;;26.80;39.60;;;;;;4734607;30;20052;-80
2022/09/01 12:19:23;;;;;;;0.88;0.13;;;26.20;40.20;;;;;;4734201;30;20083;-81
2022/09/01 12:22:18;;;;;;;0.30;0.10;;;25.80;40.40;;;;;;4720122;30;20518;-80
2022/09/01 12:24:52;;;;;;;1.05;0.10;;;25.40;40.80;;;;;;4717338;30;20060;-80
2022/09/01 12:27:21;;;;;;;0.20;0.10;;;25.10;41.10;;;;;;4726675;30;20090;-80
2022/09/01 12:29:50;;;;;;;1.20;0.10;;;24.90;41.30;;;;;;4726766;30;20044;-82
2022/09/01 12:32:18;;;;;;;1.27;0.10;;;24.70;41.40;;;;;;4724362;30;20052;-82
2022/09/01 12:35:00;;;;;;;0.32;0.10;;;24.70;41.50;;;;;;4701012;30;20049;-80
2022/09/01 12:37:37;;;;;;;0.33;0.10;;;24.60;41.60;;;;;;4736614;30;20056;-80
2022/09/01 12:40:04;;;;;;;1.65;0.20;;;24.60;41.80;;;;;;4708469;30;20388;-80
2022/09/01 12:42:33;;;;;;;0.20;0.10;;;24.50;41.70;;;;;;4723656;30;20060;-79
2022/09/01 12:45:12;;;;;;;0.35;0.05;;;24.50;41.70;;;;;;4714127;30;20093;-79
2022/09/01 12:47:48;;;;;;;0.77;0.10;;;24.50;41.80;;;;;;4704071;30;20486;-79
2022/09/01 12:50:16;;;;;;;0.25;0.10;;;24.40;41.60;;;;;;4734683;30;20049;-79
2022/09/01 12:53:12;;;;;;;0.47;0.10;;;24.40;41.60;;;;;;4723415;30;20049;-80
2022/09/01 12:55:39;;;;;;;0.38;0.03;;;24.40;41.40;;;;;;4739915;30;20095;-79
2022/09/01 12:58:23;;;;;;;0.60;0.10;;;24.40;41.50;;;;;;4708638;30;20408;-77
2022/09/01 13:00:57;;;;;;;0.80;0.10;;;24.40;41.20;;;;;;4735543;30;20053;-76
2022/09/01 13:03:26;;;;;;;0.35;0.10;;;24.40;40.90;;;;;;4720547;30;20049;-81
2022/09/01 13:05:57;;;;;;;0.35;0.13;;;24.40;40.90;;;;;;4725807;30;20131;-78
2022/09/01 13:08:31;;;;;;;1.15;0.20;;;24.40;40.80;;;;;;4726705;30;20056;-78
2022/09/01 13:11:08;;;;;;;0.40;0.10;;;24.30;40.60;;;;;;4720814;30;20048;-74
2022/09/01 13:13:37;;;;;;;1.48;0.10;;;24.30;40.60;;;;;;4724199;30;20139;-74
2022/09/01 13:16:11;;;;;;;0.73;0.32;;;24.30;40.70;;;;;;4727732;30;20542;-73
2022/09/01 13:18:41;;;;;;;0.40;0.10;;;24.30;40.80;;;;;;4718120;30;20056;-74
2022/09/01 13:21:29;;;;;;;0.80;0.20;;;24.30;40.80;;;;;;4732777;30;20068;-74
2022/09/01 13:23:56;;;;;;;0.17;0.03;;;24.30;40.80;;;;;;4738571;30;20123;-74
2022/09/01 13:26:25;;;;;;;0.93;0.20;;;24.30;40.90;;;;;;4731298;30;20180;-74
2022/09/01 13:28:52;;;;;;;0.30;0.10;;;24.40;40.80;;;;;;4737342;30;20060;-74
2022/09/01 13:31:19;;;;;;;3.00;0.30;;;24.40;40.80;;;;;;4719279;30;20490;-74
2022/09/01 13:33:55;;;;;;;0.32;0.10;;;24.40;40.70;;;;;;4718891;30;20470;-74
2022/09/01 13:36:45;;;;;;;0.90;0.10;;;24.40;40.70;;;;;;4706728;30;20045;-74